Bend, OR (97707)

5:52 AM PST on February 01, 2015 (GMT -0800)
Three Rivers W7JST | Change Station
CLOSE
Current Station
Personal Weather Station
Location: Bend, OR
Elevation: 4190 ft
Nearby Weather Stations

Elev 4190 ft 43.81 °N, 121.46 °W | Updated 3 minutes ago

Fog
Fog
28.0 °F
Feels Like 28 °F
N
1.1
Wind Variable Wind from ESE

Today
High -- | Low -- °F
--% Chance of Precip.
Yesterday
High -- | Low -- °F
Precip. -- in
7:23 AM 5:16 PM
Waxing Gibbous, 95% visible
Pressure 30.13 in
Visibility 2.0 miles
Clouds Overcast 100 ft
Windchill 28 °F
Dew Point 28 °F
Humidity 99%
Rainfall 0.00 in
Snow Depth Not available.
UV 0 out of 12
Pollen 4.20 out of 12
Air Quality Not available.
Flu Activity Not available.
METAR KBDN 011355Z AUTO 00000KT 2SM BR OVC001 M02/M02 A3013 RMK AO2

More Conditions Fewer Conditions

Pressure 30.13 in
Visibility 2.0 miles
Clouds Overcast 100 ft
Windchill 28 °F
Dew Point 28 °F
Humidity 99%
Rainfall 0.00 in
Snow Depth Not available.
UV 0 out of 12
Pollen 4.20 out of 12
Air Quality Not available.
Flu Activity Not available.
METAR KBDN 011355Z AUTO 00000KT 2SM BR OVC001 M02/M02 A3013 RMK AO2

More Conditions Fewer Conditions

10-Day Weather Forecast

Almanac

Astronomy

Feb. 01, 2015 Rise Set
Actual Time
Civil Twilight
Nautical Twilight
Astronomical Twilight
Moon
Length of Visible Light
Length of Day
Tomorrow will be .
, % of the Moon is Illuminated

Today's Extremes

State Highs State Lows

Community

WunderPhotos

Upload Photos

1,792,363 photos uploaded!

WunderBlogs® & News

Nearby

Air Quality

  Air Quality AQ Index Pollutant
Not available.

Snow Depth

Station Depth Elevation

Earthquake Activity

City Distance Mag. Time & Date
Minimum magnitude displayed is 2.5.

Coastal Water Temperatures

Place Temperature

Nearby Weather Stations